TimeEDT,TemperatureF,Dew PointF,Humidity,Sea Level PressureIn,VisibilityMPH,Wind Direction,Wind SpeedMPH,Gust SpeedMPH,PrecipitationIn,Events,Conditions,WindDirDegrees,DateUTC
12:54 AM,30.9,26.1,82,30.17,10.0,Calm,Calm,-,N/A,,Clear,0,2014-04-27 04:54:00
1:54 AM,28.9,27.0,92,30.20,10.0,NW,3.5,-,N/A,,Clear,310,2014-04-27 05:54:00
2:54 AM,30.0,25.0,82,30.20,10.0,North,4.6,-,N/A,,Clear,350,2014-04-27 06:54:00
3:54 AM,28.0,24.1,85,30.22,10.0,Calm,Calm,-,N/A,,Clear,0,2014-04-27 07:54:00
4:54 AM,27.0,24.1,89,30.23,10.0,Calm,Calm,-,N/A,,Clear,0,2014-04-27 08:54:00
5:54 AM,27.0,25.0,92,30.24,10.0,North,3.5,-,N/A,,Clear,360,2014-04-27 09:54:00
6:54 AM,30.0,25.0,82,30.25,10.0,Calm,Calm,-,N/A,,Clear,0,2014-04-27 10:54:00
7:54 AM,34.0,28.0,79,30.26,10.0,NNE,4.6,-,N/A,,Clear,30,2014-04-27 11:54:00
8:54 AM,37.9,27.0,65,30.27,10.0,ENE,11.5,-,N/A,,Clear,60,2014-04-27 12:54:00
9:54 AM,42.1,25.0,51,30.27,10.0,ENE,8.1,-,N/A,,Clear,70,2014-04-27 13:54:00
10:54 AM,43.0,25.0,49,30.28,10.0,East,9.2,-,N/A,,Clear,90,2014-04-27 14:54:00
11:54 AM,45.0,25.0,46,30.28,10.0,ESE,10.4,-,N/A,,Clear,120,2014-04-27 15:54:00
12:54 PM,46.0,26.1,46,30.27,10.0,ESE,11.5,-,N/A,,Clear,120,2014-04-27 16:54:00
1:54 PM,46.9,26.1,44,30.26,10.0,ESE,15.0,24.2,N/A,,Clear,120,2014-04-27 17:54:00
2:54 PM,48.0,27.0,44,30.25,10.0,East,9.2,-,N/A,,Clear,90,2014-04-27 18:54:00
3:54 PM,48.0,25.0,41,30.24,10.0,ESE,12.7,-,N/A,,Clear,120,2014-04-27 19:54:00
4:54 PM,48.0,23.0,37,30.23,10.0,East,12.7,-,N/A,,Clear,80,2014-04-27 20:54:00
5:54 PM,46.0,24.1,42,30.23,10.0,ESE,10.4,-,N/A,,Clear,120,2014-04-27 21:54:00
6:54 PM,44.1,23.0,43,30.22,10.0,ESE,10.4,-,N/A,,Clear,110,2014-04-27 22:54:00
7:54 PM,43.0,21.9,43,30.23,10.0,SE,5.8,-,N/A,,Clear,140,2014-04-27 23:54:00
8:54 PM,39.0,21.9,50,30.25,10.0,South,3.5,-,N/A,,Clear,170,2014-04-28 00:54:00
9:54 PM,35.1,24.1,64,30.28,10.0,Calm,Calm,-,N/A,,Clear,0,2014-04-28 01:54:00
10:54 PM,34.0,24.1,67,30.26,10.0,Calm,Calm,-,N/A,,Clear,0,2014-04-28 02:54:00
11:54 PM,32.0,25.0,75,30.25,10.0,ENE,4.6,-,N/A,,Clear,70,2014-04-28 03:54:00